This is the latest recevied weather packets stored in our database for station/object KC4JY. If no packets are shown the sender has not sent any weather packets the latest 10 day(s).
| Time | Temp. | Humidity | Pressure | Rain* | Wind** | Luminosity | Snow |
|---|---|---|---|---|---|---|---|
| 1777819504 | 14.44° C | 49% | 1019 hPa | 0 mm | - | - | - |
| 1777818643 | 13.89° C | 52% | 1019 hPa | 0 mm | - | - | - |
| 1777817745 | 13.33° C | 59% | 1019 hPa | 0 mm | - | - | - |
| 1777816821 | 12.78° C | 59% | 1019 hPa | 0 mm | - | - | - |
| 1777815924 | 12.78° C | 64% | 1019.1 hPa | 0 mm | - | - | - |
| 1777815054 | 12.22° C | 68% | 1019 hPa | 0 mm | - | - | - |
| 1777814150 | 11.67° C | 71% | 1019 hPa | 0 mm | - | - | - |
| 1777813236 | 10.56° C | 72% | 1018.9 hPa | 0 mm | - | - | - |
| 1777812323 | 10° C | 73% | 1018.9 hPa | 0 mm | - | - | - |
| 1777811401 | 10° C | 74% | 1018.7 hPa | 0 mm | - | - | - |
| 1777810562 | 9.44° C | 75% | 1018.4 hPa | 0 mm | - | - | - |
| 1777809635 | 8.89° C | 78% | 1018.2 hPa | 0 mm | - | - | - |
| 1777808731 | 8.33° C | 80% | 1018.1 hPa | 0 mm | - | - | - |
| 1777807812 | 7.78° C | 81% | 1017.8 hPa | 0 mm | - | - | - |
| 1777806906 | 7.22° C | 80% | 1017.4 hPa | 0 mm | - | - | - |
| 1777806044 | 6.67° C | 83% | 1017.2 hPa | 0 mm | - | - | - |
| 1777805141 | 6.67° C | 84% | 1017 hPa | 0 mm | - | - | - |
| 1777804220 | 6.67° C | 85% | 1016.6 hPa | 0 mm | - | - | - |
| 1777803319 | 6.67° C | 85% | 1016.4 hPa | 0 mm | - | - | - |
| 1777802479 | 7.22° C | 85% | 1016.3 hPa | 0 mm | - | - | - |
| 1777801555 | 7.22° C | 86% | 1016.1 hPa | 0 mm | - | - | - |
| 1777800642 | 7.22° C | 87% | 1016 hPa | 0 mm | - | - | - |
| 1777799745 | 7.22° C | 88% | 1015.9 hPa | 0 mm | - | - | - |
| 1777798817 | 7.22° C | 89% | 1015.7 hPa | 0 mm | - | - | - |
| 1777797927 | 7.78° C | 90% | 1015.5 hPa | 0 mm | - | - | - |
* Rain latest hour (hover to see other rain measurements)
** Current wind speed in m/s (hover to see current wind gust speed)